Time;durP1;ratioP1;P1;durP2;ratioP2;P2;SDS_P1;SDS_P2;PMS_P1;PMS_P2;Temp;Humidity;BMP_temperature;BMP_pressure;BME280_temperature;BME280_humidity;BME280_pressure;Samples;Min_cycle;Max_cycle;Signal;HPM_P1;HPM_P2
2022/01/26 00:06:42;;;;;;;155.73;62.60;;;;;;;-144.47;100.00;61586.06;4965457;28;20035;-83
2022/01/26 00:09:10;;;;;;;151.25;64.80;;;;;;;-144.47;100.00;61586.06;4971262;28;20042;-83
2022/01/26 00:11:36;;;;;;;152.25;60.67;;;;;;;-144.47;100.00;61586.06;4969041;28;20035;-82
2022/01/26 00:14:09;;;;;;;153.55;63.72;;;;;;;-144.47;100.00;61586.06;4970759;28;20108;-83
2022/01/26 00:16:42;;;;;;;151.23;59.30;;;;;;;-144.47;100.00;61586.06;4955784;28;20046;-83
2022/01/26 00:19:16;;;;;;;138.07;58.13;;;;;;;-144.47;100.00;61586.06;4962294;28;20061;-83
2022/01/26 00:21:47;;;;;;;134.40;58.25;;;;;;;-144.47;100.00;61586.06;4963312;28;20035;-83
2022/01/26 00:24:38;;;;;;;137.95;59.85;;;;;;;-144.47;100.00;61586.06;4962450;28;20066;-83
2022/01/26 00:27:20;;;;;;;131.27;58.63;;;;;;;-144.47;100.00;61586.06;4971049;28;20049;-83
2022/01/26 00:29:57;;;;;;;137.27;59.00;;;;;;;-144.47;100.00;61586.06;4955612;28;20419;-83
2022/01/26 00:41:02;;;;;;;;;;;;;;;-144.47;100.00;61586.06;4930989;29;20032;-82
2022/01/26 00:43:31;;;;;;;124.35;54.28;;;;;;;-144.47;100.00;61586.06;4932250;29;20076;-82
2022/01/26 00:45:58;;;;;;;126.13;56.78;;;;;;;-144.47;100.00;61586.06;4932039;29;20106;-83
2022/01/26 00:48:26;;;;;;;127.13;53.10;;;;;;;-144.47;100.00;61586.06;4915778;29;20046;-83
2022/01/26 00:50:53;;;;;;;127.28;55.80;;;;;;;-144.47;100.00;61586.06;4931237;29;20040;-82
2022/01/26 00:53:24;;;;;;;126.45;58.53;;;;;;;-144.47;100.00;61586.06;4931511;29;20416;-83
2022/01/26 00:55:50;;;;;;;130.52;56.42;;;;;;;-144.47;100.00;61586.06;4931386;29;20048;-82
2022/01/26 00:58:16;;;;;;;129.48;58.83;;;;;;;-144.47;100.00;61586.06;4936495;29;20087;-83
2022/01/26 01:00:41;;;;;;;129.48;57.53;;;;;;;-144.47;100.00;61586.06;4941683;29;20042;-82
2022/01/26 01:03:07;;;;;;;136.90;58.20;;;;;;;-144.47;100.00;61586.06;4940492;29;20055;-82
2022/01/26 01:05:43;;;;;;;148.02;57.42;;;;;;;-144.47;100.00;61586.06;4959387;28;20023;-81
2022/01/26 01:08:13;;;;;;;129.32;56.88;;;;;;;-144.47;100.00;61586.06;4946117;29;20122;-82
2022/01/26 01:10:40;;;;;;;138.50;59.83;;;;;;;-144.47;100.00;61586.06;4926153;29;20043;-81
2022/01/26 01:13:13;;;;;;;133.57;56.65;;;;;;;-144.47;100.00;61586.06;4937000;29;20032;-82
2022/01/26 01:15:39;;;;;;;134.48;59.70;;;;;;;-144.47;100.00;61586.06;4956687;28;20102;-82
2022/01/26 01:18:12;;;;;;;138.40;57.05;;;;;;;-144.47;100.00;61586.06;4960185;28;20039;-83
2022/01/26 01:24:03;;;;;;;149.00;58.38;;;;;;;-144.47;100.00;61586.06;4967339;28;20058;-83
2022/01/26 01:29:23;;;;;;;131.93;55.03;;;;;;;-144.47;100.00;61586.06;4961382;28;20135;-84
2022/01/26 01:34:29;;;;;;;;;;;;;;;-144.47;100.00;61586.06;4970796;28;20479;-82
2022/01/26 01:37:01;;;;;;;146.57;57.60;;;;;;;-144.47;100.00;61586.06;4965091;28;19957;-80
2022/01/26 01:39:29;;;;;;;132.60;57.20;;;;;;;-144.47;100.00;61586.06;4967664;28;20034;-82
2022/01/26 01:41:54;;;;;;;132.00;59.40;;;;;;;-144.47;100.00;61586.06;4964584;28;20043;-83
2022/01/26 01:44:20;;;;;;;126.35;56.38;;;;;;;-144.47;100.00;61586.06;4981611;28;20118;-82
2022/01/26 01:46:46;;;;;;;130.75;56.00;;;;;;;-144.47;100.00;61586.06;4966459;28;20042;-80
2022/01/26 01:49:13;;;;;;;126.50;55.05;;;;;;;-144.47;100.00;61586.06;4968692;28;20042;-83
2022/01/26 01:51:43;;;;;;;140.25;56.55;;;;;;;-144.47;100.00;61586.06;4963003;28;20035;-82
2022/01/26 01:54:14;;;;;;;135.90;57.03;;;;;;;-144.47;100.00;61586.06;4963739;28;20130;-83
2022/01/26 01:56:44;;;;;;;138.68;57.45;;;;;;;-144.47;100.00;61586.06;4962904;28;20045;-83
2022/01/26 01:59:11;;;;;;;143.93;60.13;;;;;;;-144.47;100.00;61586.06;4968587;28;20051;-84
2022/01/26 02:01:37;;;;;;;126.43;56.17;;;;;;;-144.47;100.00;61586.06;4967037;28;20569;-82
2022/01/26 02:04:03;;;;;;;133.15;56.47;;;;;;;-144.47;100.00;61586.06;4963306;28;20030;-83
2022/01/26 02:06:28;;;;;;;133.07;55.97;;;;;;;-144.47;100.00;61586.06;4983791;22;20451;-75
2022/01/26 02:08:54;;;;;;;131.68;56.58;;;;;;;-144.47;100.00;61586.06;4976096;28;20395;-76
2022/01/26 02:11:20;;;;;;;133.35;55.35;;;;;;;-144.47;100.00;61586.06;4971660;28;20057;-75
2022/01/26 02:19:16;;;;;;;131.68;56.25;;;;;;;-144.47;100.00;61586.06;4963993;28;20031;-75
2022/01/26 02:22:05;;;;;;;131.98;55.17;;;;;;;-144.47;100.00;61586.06;4959885;28;20101;-75
2022/01/26 03:02:19;;;;;;;144.07;59.88;;;;;;;-144.47;100.00;61586.06;4959343;28;20039;-76
2022/01/26 03:04:49;;;;;;;147.45;60.35;;;;;;;-144.47;100.00;61586.06;4964312;28;20122;-75
2022/01/26 03:07:22;;;;;;;146.15;59.90;;;;;;;-144.47;100.00;61586.06;4963012;28;20029;-75
2022/01/26 03:09:59;;;;;;;146.98;60.15;;;;;;;-144.47;100.00;61586.06;4963524;28;20106;-76
2022/01/26 03:12:52;;;;;;;154.98;61.47;;;;;;;-144.47;100.00;61586.06;4961811;28;20046;-76
2022/01/26 03:15:16;;;;;;;146.32;60.10;;;;;;;-144.47;100.00;61586.06;4959329;28;20039;-76
2022/01/26 03:20:15;;;;;;;146.85;56.95;;;;;;;-144.47;100.00;61586.06;4961945;28;20050;-76
2022/01/26 03:33:51;;;;;;;158.77;57.25;;;;;;;-144.47;100.00;61586.06;4961519;28;20110;-75
2022/01/26 03:36:13;;;;;;;139.77;60.10;;;;;;;-144.47;100.00;61586.06;4964276;28;20050;-74
2022/01/26 03:38:49;;;;;;;148.48;56.08;;;;;;;-144.47;100.00;61586.06;4961576;28;20067;-76
2022/01/26 03:43:46;;;;;;;134.23;55.80;;;;;;;-144.47;100.00;61586.06;4962827;28;20039;-76
2022/01/26 03:46:12;;;;;;;142.48;58.15;;;;;;;-144.47;100.00;61586.06;4963031;28;20041;-76
2022/01/26 03:48:37;;;;;;;127.93;54.47;;;;;;;-144.47;100.00;61586.06;4960136;28;20040;-74
2022/01/26 03:51:03;;;;;;;173.52;58.72;;;;;;;-144.47;100.00;61586.06;4963704;28;20062;-74
2022/01/26 03:53:28;;;;;;;150.00;54.78;;;;;;;-144.47;100.00;61586.06;4956825;28;20492;-76
2022/01/26 03:55:54;;;;;;;129.27;54.05;;;;;;;-144.47;100.00;61586.06;4963344;28;20046;-75
2022/01/26 03:58:20;;;;;;;134.50;56.65;;;;;;;-144.47;100.00;61586.06;4961382;28;20132;-75
2022/01/26 04:00:46;;;;;;;141.13;53.60;;;;;;;-144.47;100.00;61586.06;4977330;28;20519;-76
2022/01/26 04:03:12;;;;;;;141.85;53.67;;;;;;;-144.47;100.00;61586.06;4962569;28;20036;-74
2022/01/26 04:05:38;;;;;;;143.93;56.03;;;;;;;-144.47;100.00;61586.06;4961274;28;20392;-74
2022/01/26 04:08:10;;;;;;;136.52;56.00;;;;;;;-144.47;100.00;61586.06;4963204;28;20495;-74
2022/01/26 04:13:20;;;;;;;121.25;52.65;;;;;;;-144.47;100.00;61586.06;4959936;28;20034;-76
2022/01/26 04:15:45;;;;;;;128.50;54.53;;;;;;;-144.47;100.00;61586.06;4961759;28;20036;-75
2022/01/26 04:18:16;;;;;;;156.65;53.63;;;;;;;-144.47;100.00;61586.06;4962419;28;20084;-75
2022/01/26 04:20:45;;;;;;;123.78;51.60;;;;;;;-144.47;100.00;61586.06;4960945;28;20118;-76
2022/01/26 04:23:25;;;;;;;129.23;53.33;;;;;;;-144.47;100.00;61586.06;4968132;28;20037;-76
2022/01/26 04:25:52;;;;;;;122.20;50.35;;;;;;;-144.47;100.00;61586.06;4962153;28;20135;-76
2022/01/26 04:28:24;;;;;;;123.60;51.63;;;;;;;-144.47;100.00;61586.06;4960785;28;20027;-76
2022/01/26 04:30:50;;;;;;;130.48;54.00;;;;;;;-144.47;100.00;61586.06;4963595;28;20039;-76
2022/01/26 04:33:16;;;;;;;128.32;53.75;;;;;;;-144.47;100.00;61586.06;4960789;28;20085;-76
2022/01/26 04:35:44;;;;;;;127.18;49.97;;;;;;;-144.47;100.00;61586.06;4962398;28;20035;-76
2022/01/26 04:38:20;;;;;;;125.13;50.85;;;;;;;-144.47;100.00;61586.06;4961380;28;20151;-75
2022/01/26 04:41:21;;;;;;;118.82;51.60;;;;;;;-144.47;100.00;61586.06;4960992;28;20042;-75
2022/01/26 04:43:50;;;;;;;121.80;50.63;;;;;;;-144.47;100.00;61586.06;4959548;28;20186;-75
2022/01/26 04:46:15;;;;;;;126.43;55.53;;;;;;;-144.47;100.00;61586.06;4960663;28;20045;-76
2022/01/26 04:48:41;;;;;;;133.02;52.55;;;;;;;-144.47;100.00;61586.06;4960319;28;20031;-77
2022/01/26 04:51:06;;;;;;;132.25;52.65;;;;;;;-144.47;100.00;61586.06;4961175;28;20042;-75
2022/01/26 04:53:32;;;;;;;162.38;55.53;;;;;;;-144.47;100.00;61586.06;4958624;28;20082;-75
2022/01/26 04:55:57;;;;;;;128.98;54.28;;;;;;;-144.47;100.00;61586.06;4976885;28;20023;-75
2022/01/26 04:58:23;;;;;;;124.80;55.53;;;;;;;-144.47;100.00;61586.06;4959543;28;20462;-74
2022/01/26 05:00:48;;;;;;;138.50;53.92;;;;;;;-144.47;100.00;61586.06;4961319;28;20042;-75
2022/01/26 05:03:14;;;;;;;136.52;52.38;;;;;;;-144.47;100.00;61586.06;4960942;28;20034;-76
2022/01/26 05:05:40;;;;;;;118.97;52.88;;;;;;;-144.47;100.00;61586.06;4960542;28;20039;-76
2022/01/26 05:08:06;;;;;;;125.53;55.97;;;;;;;-144.47;100.00;61586.06;4961634;28;20033;-76
2022/01/26 05:10:32;;;;;;;126.38;53.85;;;;;;;-144.47;100.00;61586.06;4941972;29;20042;-75
2022/01/26 05:12:58;;;;;;;124.97;54.25;;;;;;;-144.47;100.00;61586.06;4954846;28;20027;-75
2022/01/26 05:15:25;;;;;;;119.20;52.28;;;;;;;-144.47;100.00;61586.06;4961752;28;20454;-75
2022/01/26 05:17:51;;;;;;;127.15;50.10;;;;;;;-144.47;100.00;61586.06;4958854;28;20038;-74
2022/01/26 05:20:17;;;;;;;117.65;48.63;;;;;;;-144.47;100.00;61586.06;4960279;28;20035;-75
2022/01/26 05:22:44;;;;;;;142.18;48.55;;;;;;;-144.47;100.00;61586.06;4960870;28;20114;-76
2022/01/26 05:25:11;;;;;;;116.70;47.80;;;;;;;-144.47;100.00;61586.06;4958277;28;20027;-76
2022/01/26 05:27:37;;;;;;;112.85;46.28;;;;;;;-144.47;100.00;61586.06;4961760;28;20034;-76
2022/01/26 05:30:04;;;;;;;105.70;48.33;;;;;;;-144.47;100.00;61586.06;4958846;28;20049;-75
2022/01/26 05:32:30;;;;;;;104.40;47.33;;;;;;;-144.47;100.00;61586.06;4955424;28;20476;-75
2022/01/26 05:34:55;;;;;;;112.55;47.35;;;;;;;-144.47;100.00;61586.06;4962455;28;20102;-75
2022/01/26 05:37:21;;;;;;;114.60;48.65;;;;;;;-144.47;100.00;61586.06;4958075;28;20039;-75
2022/01/26 05:39:46;;;;;;;142.60;47.25;;;;;;;-144.47;100.00;61586.06;4960562;28;20381;-75
2022/01/26 05:42:12;;;;;;;109.43;46.03;;;;;;;-144.47;100.00;61586.06;4959482;28;20035;-76
2022/01/26 05:44:38;;;;;;;155.90;47.20;;;;;;;-144.47;100.00;61586.06;4959584;28;20103;-76
2022/01/26 05:47:06;;;;;;;103.90;46.83;;;;;;;-144.47;100.00;61586.06;4961714;28;20042;-76
2022/01/26 05:49:31;;;;;;;100.75;45.45;;;;;;;-144.47;100.00;61586.06;4958818;28;20059;-75
2022/01/26 05:51:57;;;;;;;101.55;45.28;;;;;;;-144.47;100.00;61586.06;4976687;28;20464;-76
2022/01/26 05:54:22;;;;;;;103.40;44.63;;;;;;;-144.47;100.00;61586.06;4957881;28;20043;-74
2022/01/26 05:56:48;;;;;;;104.68;45.75;;;;;;;-144.47;100.00;61586.06;4960852;28;20023;-75
2022/01/26 05:59:19;;;;;;;97.80;45.45;;;;;;;-144.47;100.00;61586.06;4960871;28;20042;-77
2022/01/26 06:01:46;;;;;;;96.10;45.90;;;;;;;-144.47;100.00;61586.06;4973864;28;20031;-75
2022/01/26 06:04:12;;;;;;;113.15;44.38;;;;;;;-144.47;100.00;61586.06;4959909;28;20027;-75
2022/01/26 06:06:37;;;;;;;101.70;43.03;;;;;;;-144.47;100.00;61586.06;4964102;28;20039;-75
2022/01/26 06:09:03;;;;;;;87.88;42.25;;;;;;;-144.47;100.00;61586.06;4965482;28;20039;-74
2022/01/26 06:11:28;;;;;;;87.90;41.67;;;;;;;-144.47;100.00;61586.06;4958455;28;20170;-75
2022/01/26 06:13:55;;;;;;;104.65;42.53;;;;;;;-144.47;100.00;61586.06;4964983;28;20495;-76
2022/01/26 06:16:21;;;;;;;115.85;42.70;;;;;;;-144.47;100.00;61586.06;4963117;28;20047;-74
2022/01/26 06:18:47;;;;;;;92.55;40.70;;;;;;;-144.47;100.00;61586.06;4964146;28;20071;-74
2022/01/26 06:21:13;;;;;;;97.15;40.30;;;;;;;-144.47;100.00;61586.06;4961537;28;20062;-74
2022/01/26 06:23:38;;;;;;;94.13;42.95;;;;;;;-144.47;100.00;61586.06;4965204;28;20031;-74
2022/01/26 06:26:06;;;;;;;86.50;41.92;;;;;;;-144.47;100.00;61586.06;4966170;28;20038;-76
2022/01/26 06:28:32;;;;;;;93.90;42.33;;;;;;;-144.47;100.00;61586.06;4968415;28;20109;-74
2022/01/26 06:31:00;;;;;;;102.43;40.92;;;;;;;-144.47;100.00;61586.06;4963565;28;20518;-77
2022/01/26 06:33:29;;;;;;;87.72;40.78;;;;;;;-144.47;100.00;61586.06;4965119;28;20053;-74
2022/01/26 06:35:56;;;;;;;89.38;41.13;;;;;;;-144.47;100.00;61586.06;4961302;28;20503;-74
2022/01/26 06:38:24;;;;;;;91.05;37.85;;;;;;;-144.47;100.00;61586.06;4962555;28;20039;-75
2022/01/26 06:40:54;;;;;;;89.22;39.88;;;;;;;-144.47;100.00;61586.06;4902044;28;20069;-74
2022/01/26 06:43:22;;;;;;;91.30;40.40;;;;;;;-144.47;100.00;61586.06;4990407;28;20038;-73
2022/01/26 06:45:52;;;;;;;80.65;39.85;;;;;;;-144.47;100.00;61586.06;4977215;28;20042;-73
2022/01/26 06:50:43;;;;;;;90.40;40.00;;;;;;;-144.47;100.00;61586.06;4973112;28;20093;-72
2022/01/26 06:53:09;;;;;;;83.82;40.55;;;;;;;-144.47;100.00;61586.06;4974230;28;20026;-74
2022/01/26 06:55:38;;;;;;;94.88;41.28;;;;;;;-144.47;100.00;61586.06;4978715;28;20043;-75
2022/01/26 06:58:04;;;;;;;100.72;42.03;;;;;;;-144.47;100.00;61586.06;4976544;28;20038;-75
2022/01/26 07:00:29;;;;;;;126.65;40.28;;;;;;;-144.47;100.00;61586.06;4971903;28;20464;-73
2022/01/26 07:02:55;;;;;;;87.72;39.13;;;;;;;-144.47;100.00;61586.06;4630855;28;10000421;-73
2022/01/26 07:05:22;;;;;;;112.60;41.63;;;;;;;-144.47;100.00;61586.06;4982645;28;20054;-73
2022/01/26 07:07:48;;;;;;;108.88;41.33;;;;;;;-144.47;100.00;61586.06;4982918;28;20035;-74
2022/01/26 07:10:14;;;;;;;118.05;40.50;;;;;;;-144.47;100.00;61586.06;4981007;28;20038;-74
2022/01/26 07:12:39;;;;;;;106.03;42.92;;;;;;;-144.47;100.00;61586.06;4980814;28;20058;-76
2022/01/26 07:23:16;;;;;;;126.05;40.60;;;;;;;-144.47;100.00;61586.06;4981931;28;20428;-74
2022/01/26 07:25:41;;;;;;;128.80;42.22;;;;;;;-144.47;100.00;61586.06;4981662;28;20031;-74
2022/01/26 07:28:07;;;;;;;114.45;42.08;;;;;;;-144.47;100.00;61586.06;4981547;28;20545;-74
2022/01/26 07:30:36;;;;;;;93.95;42.97;;;;;;;-144.47;100.00;61586.06;4980084;28;20057;-73
2022/01/26 07:33:05;;;;;;;86.70;39.60;;;;;;;-144.47;100.00;61586.06;4976148;28;20423;-74
2022/01/26 07:35:31;;;;;;;97.15;41.45;;;;;;;-144.47;100.00;61586.06;4978683;28;20200;-75
2022/01/26 07:38:01;;;;;;;96.93;42.55;;;;;;;-144.47;100.00;61586.06;4983004;28;20101;-74
2022/01/26 07:40:28;;;;;;;101.40;39.97;;;;;;;-144.47;100.00;61586.06;4980478;28;20081;-75
2022/01/26 07:42:55;;;;;;;91.75;42.28;;;;;;;-144.47;100.00;61586.06;4982281;28;20278;-73
2022/01/26 07:45:20;;;;;;;94.20;41.97;;;;;;;-144.47;100.00;61586.06;4980428;28;20371;-75
2022/01/26 07:47:47;;;;;;;94.57;42.42;;;;;;;-144.47;100.00;61586.06;4981604;28;20475;-73
2022/01/26 07:50:15;;;;;;;108.13;39.83;;;;;;;-144.47;100.00;61586.06;4981703;28;20038;-73
2022/01/26 07:52:42;;;;;;;86.28;39.50;;;;;;;-144.47;100.00;61586.06;4979097;28;20043;-74
2022/01/26 07:55:10;;;;;;;85.20;39.35;;;;;;;-144.47;100.00;61586.06;4982509;28;20026;-74
2022/01/26 07:57:35;;;;;;;96.20;39.60;;;;;;;-144.47;100.00;61586.06;4980121;28;20034;-76
2022/01/26 08:00:02;;;;;;;90.68;39.10;;;;;;;-144.47;100.00;61586.06;4982828;28;20374;-73
2022/01/26 08:02:27;;;;;;;89.88;41.67;;;;;;;-144.47;100.00;61586.06;4979458;28;20031;-75
2022/01/26 08:04:52;;;;;;;105.47;38.65;;;;;;;-144.47;100.00;61586.06;4977213;28;20058;-75
2022/01/26 08:07:18;;;;;;;91.28;38.92;;;;;;;-144.47;100.00;61586.06;4978535;28;20038;-75
2022/01/26 08:09:44;;;;;;;85.30;39.20;;;;;;;-144.47;100.00;61586.06;4982040;28;20030;-75
2022/01/26 08:12:10;;;;;;;106.72;39.03;;;;;;;-144.47;100.00;61586.06;4982103;28;20066;-74
2022/01/26 08:14:36;;;;;;;91.68;40.03;;;;;;;-144.47;100.00;61586.06;4980284;28;20022;-75
2022/01/26 08:17:03;;;;;;;107.70;41.15;;;;;;;-144.47;100.00;61586.06;4980923;28;20061;-75
2022/01/26 08:19:28;;;;;;;99.55;38.03;;;;;;;-144.47;100.00;61586.06;4974291;28;20042;-72
2022/01/26 08:21:59;;;;;;;98.03;39.55;;;;;;;-144.47;100.00;61586.06;4978903;28;20093;-70
2022/01/26 08:24:24;;;;;;;89.65;40.15;;;;;;;-144.47;100.00;61586.06;4977385;28;20086;-72
2022/01/26 08:26:50;;;;;;;96.78;42.22;;;;;;;-144.47;100.00;61586.06;4979026;28;20027;-71
2022/01/26 08:29:26;;;;;;;121.28;42.80;;;;;;;-144.47;100.00;61586.06;4976825;28;20948;-74
2022/01/26 08:31:51;;;;;;;94.22;41.85;;;;;;;-144.47;100.00;61586.06;4979058;28;20103;-71
2022/01/26 08:34:17;;;;;;;145.23;44.83;;;;;;;-144.47;100.00;61586.06;4976820;28;20027;-73
2022/01/26 08:36:43;;;;;;;192.10;48.30;;;;;;;-144.47;100.00;61586.06;4981810;28;20035;-71
2022/01/26 08:39:10;;;;;;;106.95;45.40;;;;;;;-144.47;100.00;61586.06;4976661;28;20096;-72
2022/01/26 08:41:36;;;;;;;94.78;41.50;;;;;;;-144.47;100.00;61586.06;4977786;28;20039;-71
2022/01/26 08:44:01;;;;;;;109.32;43.47;;;;;;;-144.47;100.00;61586.06;4978994;28;20034;-73
2022/01/26 08:46:27;;;;;;;94.53;42.60;;;;;;;-144.47;100.00;61586.06;4978602;28;20038;-72
2022/01/26 08:48:52;;;;;;;112.70;43.53;;;;;;;-144.47;100.00;61586.06;4979808;28;20050;-72
2022/01/26 08:51:18;;;;;;;135.43;44.67;;;;;;;-144.47;100.00;61586.06;4976726;28;20109;-70
2022/01/26 08:53:45;;;;;;;161.48;40.47;;;;;;;-144.47;100.00;61586.06;4976607;28;20081;-75
2022/01/26 08:56:11;;;;;;;123.45;41.40;;;;;;;-144.47;100.00;61586.06;4975116;28;20039;-76
2022/01/26 08:58:36;;;;;;;95.35;43.08;;;;;;;-144.47;100.00;61586.06;4977954;28;20045;-77
2022/01/26 09:01:02;;;;;;;87.05;39.95;;;;;;;-144.47;100.00;61586.06;4976242;28;20069;-73
2022/01/26 09:03:28;;;;;;;94.85;40.95;;;;;;;-144.47;100.00;61586.06;4978312;28;20038;-73
2022/01/26 09:05:53;;;;;;;104.13;40.63;;;;;;;-144.47;100.00;61586.06;4976967;28;20244;-72
2022/01/26 09:08:19;;;;;;;101.68;42.88;;;;;;;-144.47;100.00;61586.06;4974678;28;20030;-72
2022/01/26 09:10:45;;;;;;;103.85;43.13;;;;;;;-144.47;100.00;61586.06;4974801;28;20495;-73
2022/01/26 09:13:11;;;;;;;127.22;44.83;;;;;;;-144.47;100.00;61586.06;4974980;28;20031;-74
2022/01/26 09:15:39;;;;;;;103.78;41.17;;;;;;;-144.47;100.00;61586.06;4976237;28;20050;-76
2022/01/26 09:18:06;;;;;;;89.20;41.97;;;;;;;-144.47;100.00;61586.06;4975496;28;20031;-74
2022/01/26 09:20:37;;;;;;;97.63;42.22;;;;;;;-144.47;100.00;61586.06;4970612;28;20038;-76
2022/01/26 09:23:03;;;;;;;112.05;45.95;;;;;;;-144.47;100.00;61586.06;4973076;28;20035;-75
2022/01/26 09:25:28;;;;;;;94.35;45.00;;;;;;;-144.47;100.00;61586.06;4975186;28;20034;-73
2022/01/26 09:27:55;;;;;;;103.30;46.60;;;;;;;-144.47;100.00;61586.06;4974267;28;20038;-75
2022/01/26 09:30:21;;;;;;;99.85;42.80;;;;;;;-144.47;100.00;61586.06;4974066;28;20077;-74
2022/01/26 09:32:46;;;;;;;107.97;45.70;;;;;;;-144.47;100.00;61586.06;4973709;28;20474;-73
2022/01/26 09:35:13;;;;;;;98.88;45.85;;;;;;;-144.47;100.00;61586.06;4974164;28;20534;-72
2022/01/26 09:37:45;;;;;;;103.55;42.88;;;;;;;-144.47;100.00;61586.06;4969569;28;20134;-70
2022/01/26 09:40:11;;;;;;;103.43;42.30;;;;;;;-144.47;100.00;61586.06;4975645;28;20483;-73
2022/01/26 09:42:36;;;;;;;85.47;40.95;;;;;;;-144.47;100.00;61586.06;4978631;28;20097;-73
2022/01/26 09:45:06;;;;;;;89.22;42.38;;;;;;;-144.47;100.00;61586.06;4974327;28;20634;-71
2022/01/26 09:47:31;;;;;;;86.40;40.53;;;;;;;-144.47;100.00;61586.06;4976028;28;20504;-70
2022/01/26 09:49:57;;;;;;;92.75;40.22;;;;;;;-144.47;100.00;61586.06;4977717;28;20090;-74
2022/01/26 09:52:34;;;;;;;81.47;39.42;;;;;;;-144.47;100.00;61586.06;4983151;28;20034;-73
2022/01/26 09:55:00;;;;;;;85.03;41.55;;;;;;;-144.47;100.00;61586.06;4975434;28;20029;-72
2022/01/26 09:57:27;;;;;;;95.40;44.70;;;;;;;-144.47;100.00;61586.06;4978871;28;20039;-73
2022/01/26 09:59:53;;;;;;;100.45;43.15;;;;;;;-144.47;100.00;61586.06;4976294;28;20504;-73
2022/01/26 10:02:24;;;;;;;96.70;44.35;;;;;;;-144.47;100.00;61586.06;4981258;28;20034;-73
2022/01/26 10:04:58;;;;;;;95.53;46.75;;;;;;;-144.47;100.00;61586.06;4978498;28;20403;-72
2022/01/26 10:07:29;;;;;;;90.00;43.92;;;;;;;-144.47;100.00;61586.06;4978429;28;20043;-71
2022/01/26 10:18:16;;;;;;;109.00;42.65;;;;;;;-144.47;100.00;61586.06;4975929;28;20483;-71
2022/01/26 10:20:49;;;;;;;91.03;41.60;;;;;;;-144.47;100.00;61586.06;4976504;28;20475;-73
2022/01/26 10:23:20;;;;;;;89.45;42.50;;;;;;;-144.47;100.00;61586.06;4973210;28;20089;-72
2022/01/26 10:26:12;;;;;;;108.55;37.88;;;;;;;-144.47;100.00;61586.06;4976843;28;20109;-74
2022/01/26 10:28:41;;;;;;;82.60;40.90;;;;;;;-144.47;100.00;61586.06;4976127;28;20089;-71
2022/01/26 10:31:17;;;;;;;83.53;41.78;;;;;;;-144.47;100.00;61586.06;4974184;28;20113;-71
2022/01/26 10:33:56;;;;;;;86.28;42.28;;;;;;;-144.47;100.00;61586.06;4976552;28;20058;-73
2022/01/26 10:36:22;;;;;;;86.60;41.10;;;;;;;-144.47;100.00;61586.06;4972506;28;20039;-72
2022/01/26 10:39:13;;;;;;;87.50;43.53;;;;;;;-144.47;100.00;61586.06;4976183;28;20384;-71
2022/01/26 10:41:41;;;;;;;91.80;44.53;;;;;;;-144.47;100.00;61586.06;4974365;28;20052;-71
2022/01/26 10:44:07;;;;;;;92.95;46.08;;;;;;;-144.47;100.00;61586.06;4975346;28;20065;-72
2022/01/26 10:46:39;;;;;;;91.65;44.65;;;;;;;-144.47;100.00;61586.06;4975437;28;20472;-74
2022/01/26 10:49:30;;;;;;;94.72;45.65;;;;;;;-144.47;100.00;61586.06;4974082;28;20039;-73
2022/01/26 10:52:01;;;;;;;91.45;42.42;;;;;;;-144.47;100.00;61586.06;4974942;28;20449;-79
2022/01/26 10:54:39;;;;;;;86.95;43.53;;;;;;;-144.47;100.00;61586.06;4975475;28;20506;-75
2022/01/26 10:57:08;;;;;;;86.78;42.88;;;;;;;-144.47;100.00;61586.06;4974654;28;20038;-72
2022/01/26 10:59:35;;;;;;;91.75;43.05;;;;;;;-144.47;100.00;61586.06;4972643;28;20141;-74
2022/01/26 11:02:04;;;;;;;92.70;44.10;;;;;;;-144.47;100.00;61586.06;4973600;28;20032;-75
2022/01/26 11:04:33;;;;;;;89.03;44.35;;;;;;;-144.47;100.00;61586.06;5006781;28;20306;-74
2022/01/26 11:06:58;;;;;;;89.70;44.83;;;;;;;-144.47;100.00;61586.06;4976304;28;20054;-75
2022/01/26 11:09:27;;;;;;;83.55;41.60;;;;;;;-144.47;100.00;61586.06;4974919;28;20045;-71
2022/01/26 11:12:08;;;;;;;82.97;41.10;;;;;;;-144.47;100.00;61586.06;4974635;28;20030;-74
2022/01/26 11:14:49;;;;;;;77.30;38.60;;;;;;;-144.47;100.00;61586.06;4975515;28;20393;-73
2022/01/26 11:17:33;;;;;;;83.28;39.95;;;;;;;-144.47;100.00;61586.06;4973133;28;20061;-71
2022/01/26 11:19:59;;;;;;;78.03;39.70;;;;;;;-144.47;100.00;61586.06;4975919;28;20093;-73
2022/01/26 11:22:31;;;;;;;79.18;39.90;;;;;;;-144.47;100.00;61586.06;4975038;28;20038;-73
2022/01/26 11:25:11;;;;;;;80.05;40.67;;;;;;;-144.47;100.00;61586.06;4979357;28;20081;-74
2022/01/26 11:27:38;;;;;;;77.97;41.60;;;;;;;-144.47;100.00;61586.06;4979037;28;20438;-73
2022/01/26 11:30:27;;;;;;;84.68;41.17;;;;;;;-144.47;100.00;61586.06;4980029;28;20030;-74
2022/01/26 11:32:59;;;;;;;76.88;39.67;;;;;;;-144.47;100.00;61586.06;4981466;28;20125;-73
2022/01/26 11:35:27;;;;;;;78.72;41.03;;;;;;;-144.47;100.00;61586.06;4994421;28;20034;-72
2022/01/26 11:38:06;;;;;;;79.13;41.05;;;;;;;-144.47;100.00;61586.06;4981150;28;20122;-73
2022/01/26 11:46:32;;;;;;;83.68;41.35;;;;;;;-144.47;100.00;61586.06;4978557;28;20042;-73
2022/01/26 11:49:11;;;;;;;76.78;38.88;;;;;;;-144.47;100.00;61586.06;4980274;28;20109;-76
2022/01/26 11:51:50;;;;;;;79.93;39.97;;;;;;;-144.47;100.00;61586.06;4974412;28;20058;-79
2022/01/26 11:54:18;;;;;;;76.43;40.17;;;;;;;-144.47;100.00;61586.06;4978716;28;20140;-73
2022/01/26 11:57:16;;;;;;;71.93;38.50;;;;;;;-144.47;100.00;61586.06;4978800;28;20113;-75
2022/01/26 11:59:50;;;;;;;72.68;38.33;;;;;;;-144.47;100.00;61586.06;4966875;28;20234;-75
2022/01/26 12:02:38;;;;;;;79.22;41.28;;;;;;;-144.47;100.00;61586.06;4974731;28;20031;-76
2022/01/26 12:05:07;;;;;;;80.72;40.30;;;;;;;-144.47;100.00;61586.06;4977362;28;20118;-75
2022/01/26 12:07:33;;;;;;;73.28;40.03;;;;;;;-144.47;100.00;61586.06;4973464;28;20039;-75
2022/01/26 12:10:03;;;;;;;76.15;39.83;;;;;;;-144.47;100.00;61586.06;4978143;28;20100;-74
2022/01/26 12:12:29;;;;;;;76.55;40.80;;;;;;;-144.47;100.00;61586.06;4975973;28;20138;-73
2022/01/26 12:14:59;;;;;;;82.65;40.53;;;;;;;-144.47;100.00;61586.06;4976535;28;20125;-73
2022/01/26 12:17:28;;;;;;;73.88;39.13;;;;;;;-144.47;100.00;61586.06;4977251;28;20039;-74
2022/01/26 12:32:01;;;;;;;75.07;38.10;;;;;;;-144.47;100.00;61586.06;4977869;28;20118;-74
2022/01/26 12:45:15;;;;;;;81.88;43.20;;;;;;;-144.47;100.00;61586.06;4976418;28;20039;-72
2022/01/26 12:47:42;;;;;;;73.80;40.00;;;;;;;-144.47;100.00;61586.06;4974569;28;20046;-75
2022/01/26 12:50:08;;;;;;;80.55;42.30;;;;;;;-144.47;100.00;61586.06;4978899;28;20114;-73
2022/01/26 12:52:34;;;;;;;80.57;41.20;;;;;;;-144.47;100.00;61586.06;4975229;28;20037;-74
2022/01/26 12:55:00;;;;;;;75.10;40.05;;;;;;;-144.47;100.00;61586.06;4972195;28;20142;-74
2022/01/26 12:57:25;;;;;;;83.22;43.03;;;;;;;-144.47;100.00;61586.06;4979844;28;20141;-74
2022/01/26 13:00:04;;;;;;;85.18;42.03;;;;;;;-144.47;100.00;61586.06;4977423;28;20506;-74
2022/01/26 13:02:30;;;;;;;80.90;40.10;;;;;;;-144.47;100.00;61586.06;4972498;28;20030;-74
2022/01/26 13:05:03;;;;;;;77.80;40.28;;;;;;;-144.47;100.00;61586.06;4979585;28;20042;-75
2022/01/26 13:07:29;;;;;;;73.03;38.50;;;;;;;-144.47;100.00;61586.06;4976643;28;20034;-75
2022/01/26 13:09:55;;;;;;;81.30;41.85;;;;;;;-144.47;100.00;61586.06;4979419;28;20034;-75